Reek, Netherlands
Current Conditions -  °F | °C
As of 12:55 PM on Thursday 23 Oct 2014 (Local Time) from EHVK Reporting Station
Broken Clouds Broken Clouds  
Wind Chill: 54°   Ceiling: 3700
Heat Index: 54°   Visibility: 6mi
Dew Point: 50°   Wind: 9mph
Humidity: 88%   Direction: 200°SSW
Pressure: 30.18"   Gusts: NA
Location:  51.75°N, 5.68°E
Report Text: EHVK 231055Z AUTO 20008KT 9999 SCT032 BKN037 BKN100 12/10 Q1022 BLU 21009KT 9999 SCT030 BKN110
Loading
Personal Weather Stations






























Interactive Weather Map
Tropical Storm Tracking
New forecast layout! Learn more

10-Day Weather Forecast

Advertisements
Track Severe Weather on mobile